Latest Weather Observations for East Sale Airport

IDV60801

Issued at 10:52 am EDT Thursday 23 January 2020 (issued every 10 minutes, with the page automatically refreshed every 10 minutes)

About weather observations | Map of weather stations | Latest weather observations for VIC | Other Formats
Station Details ID: 085314 Name: EAST SALE AIRPORT Lat: -38.10 Lon: 147.14 Height: 5.3 m
Data from the previous 72 hours. | See also: Recent months at East Sale Airport
Date/Time
EDT
Temp
°C
App
Temp
°C
Dew
Point
°C
Rel
Hum
%
Delta-T
°C
Wind Press
QNH
hPa
Press
MSL
hPa
Rain since
9am
mm
Dir  Spd
km/h
Gust
km/h
Spd
kts
Gust
kts
23/10:30am 15.3 13.2 14.8 97 0.3 NE 19 26 10 14 996.4 - 5.4
23/10:00am 14.9 12.8 14.6 98 0.2 ENE 19 22 10 12 996.8 - 5.0
23/09:30am 14.6 13.4 14.1 97 0.3 E 13 15 7 8 997.3 - 3.4
23/09:13am 14.8 14.5 14.3 97 0.3 E 9 13 5 7 997.3 - 2.2
23/09:00am 14.7 14.3 14.2 97 0.3 SE 9 11 5 6 997.7 - 12.6
23/08:40am 14.8 14.4 14.0 95 0.4 SSW 9 19 5 10 997.8 - 10.0
23/08:30am 15.5 16.0 14.9 96 0.3 SSE 6 11 3 6 997.5 - 8.8
23/08:08am 15.8 15.0 15.2 96 0.3 SSW 13 15 7 8 997.6 - 6.6
23/08:00am 15.7 14.9 15.1 96 0.3 S 13 15 7 8 997.1 - 5.2
23/07:30am 15.7 14.8 14.9 95 0.5 SE 13 15 7 8 996.3 - 3.4
23/07:00am 15.9 16.2 14.9 94 0.6 SSE 7 9 4 5 997.2 - 1.8
23/06:30am 16.1 15.9 14.6 91 0.9 ESE 9 11 5 6 997.3 - 0.4
23/06:00am 16.3 16.4 14.5 89 1.0 SSE 7 9 4 5 996.9 - 0.0
23/05:30am 16.3 15.3 14.5 89 1.0 SW 13 17 7 9 997.1 - 0.0
23/05:00am 16.5 15.5 14.7 89 1.0 SW 13 17 7 9 996.1 - 0.0
23/04:30am 16.6 14.3 14.6 88 1.1 SW 20 30 11 16 995.8 - 0.0
23/04:00am 16.9 14.9 14.9 88 1.2 SW 19 28 10 15 995.9 - 0.0
23/03:31am 17.2 14.3 15.0 87 1.3 SW 24 32 13 17 996.3 - 0.0
23/03:30am 17.2 14.3 15.0 87 1.3 SW 24 32 13 17 996.3 - 0.0
23/03:00am 17.3 14.2 14.6 84 1.6 S 24 32 13 17 996.3 - 0.0
23/02:30am 17.6 15.4 14.5 82 1.8 S 19 26 10 14 996.9 - 0.0
23/02:00am 17.9 17.2 14.2 79 2.1 S 11 13 6 7 998.4 - 0.0
23/01:59am 18.0 17.3 14.3 79 2.1 S 11 13 6 7 998.3 - 0.0
23/01:30am 18.2 16.3 14.1 77 2.3 SSE 17 20 9 11 996.3 - 0.0
23/01:25am 18.3 16.7 14.0 76 2.5 S 15 20 8 11 996.6 - 0.0
23/01:00am 18.9 15.1 13.7 72 3.0 SSW 26 39 14 21 998.7 - 0.0
23/12:51am 19.3 16.9 14.3 73 2.9 SSW 20 28 11 15 998.8 - 0.0
23/12:30am 19.4 14.3 13.6 69 3.3 WSW 33 48 18 26 997.8 - 0.0
23/12:28am 19.4 13.9 13.6 69 3.3 WSW 35 50 19 27 997.8 - 0.0
23/12:04am 20.3 14.8 13.7 66 3.8 W 35 56 19 30 998.6 - 0.0
23/12:00am 20.8 15.3 13.7 64 4.1 W 35 50 19 27 998.4 - 0.0
 
Date/Time
EDT
Temp
°C
App
Temp
°C
Dew
Point
°C
Rel
Hum
%
Delta-T
°C
Wind Press
QNH
hPa
Press
MSL
hPa
Rain since
9am
mm
Dir  Spd
km/h
Gust
km/h
Spd
kts
Gust
kts
22/11:55pm 21.7 16.5 13.3 59 4.8 W 33 46 18 25 998.2 - 0.0
22/11:41pm 26.8 23.3 10.9 37 9.0 NW 20 59 11 32 997.8 - 0.0
22/11:30pm 28.4 22.3 9.6 31 10.5 N 32 65 17 35 997.2 - 0.0
22/11:05pm 28.8 22.4 9.5 30 10.8 N 33 54 18 29 996.0 - 0.0
22/11:00pm 28.0 22.2 9.3 31 10.4 N 30 44 16 24 995.8 - 0.0
22/10:42pm 28.1 22.7 9.4 31 10.4 NNE 28 52 15 28 995.9 - 0.0
22/10:30pm 27.8 22.7 9.1 31 10.3 NNE 26 39 14 21 996.0 - 0.0
22/10:25pm 28.2 22.3 9.0 30 10.6 N 30 48 16 26 996.3 - 0.0
22/10:00pm 28.7 21.4 8.9 29 11.0 N 37 54 20 29 996.1 - 0.0
22/09:41pm 28.7 20.7 8.9 29 10.9 N 41 59 22 32 996.5 - 0.0
22/09:30pm 29.6 20.2 8.6 27 11.6 N 48 63 26 34 996.6 - 0.0
22/09:19pm 29.5 20.8 8.5 27 11.6 N 44 63 24 34 996.6 - 0.0
22/09:00pm 29.8 22.0 8.2 26 11.9 N 39 56 21 30 996.9 - 0.0
22/08:44pm 30.4 23.9 8.2 25 12.2 N 32 50 17 27 996.9 - 0.0
22/08:30pm 29.3 25.6 9.4 29 11.1 NNE 19 32 10 17 997.3 - 0.0
22/08:00pm 29.2 25.8 11.3 33 10.4 N 20 44 11 24 997.6 - 0.0
22/07:30pm 25.1 26.2 18.1 65 4.4 ESE 9 11 5 6 998.2 - 0.0
22/07:00pm 25.2 24.7 17.7 63 4.7 E 17 20 9 11 997.8 - 0.0
22/06:30pm 29.5 29.1 15.2 41 8.8 NE 11 13 6 7 997.7 - 0.0
22/06:00pm 30.4 30.1 14.5 38 9.7 E 9 13 5 7 997.6 - 0.0
22/05:30pm 29.7 29.4 14.3 39 9.3 E 9 11 5 6 998.0 - 0.0
22/05:00pm 31.2 30.4 11.1 29 11.7 NNE 6 7 3 4 998.4 - 0.0
22/04:30pm 31.4 30.8 12.2 30 11.3 ENE 7 11 4 6 998.6 - 0.0
22/04:00pm 31.2 30.3 10.5 28 11.9 N 6 11 3 6 999.0 - 0.0
22/03:30pm 31.2 29.9 12.5 31 11.1 NNE 11 15 6 8 999.3 - 0.0
22/03:00pm 30.8 28.1 10.2 28 11.8 N 15 20 8 11 999.7 - 0.0
22/02:30pm 30.5 27.2 11.5 31 11.0 N 20 32 11 17 1000.3 - 0.0
22/02:00pm 30.9 26.9 9.2 26 12.2 N 20 33 11 18 1000.7 - 0.0
22/01:30pm 31.1 27.0 11.5 30 11.4 N 24 35 13 19 1001.1 - 0.0
22/01:00pm 30.3 25.8 11.3 31 11.0 N 26 37 14 20 1001.7 - 0.0
22/12:30pm 29.0 24.7 10.6 32 10.5 N 24 35 13 19 1002.5 - 0.0
22/12:00pm 29.4 25.4 10.5 31 10.8 N 22 35 12 19 1002.8 - 0.0
22/11:30am 29.3 25.8 10.9 32 10.5 N 20 30 11 16 1003.4 - 0.0
22/11:00am 28.5 25.7 13.2 39 9.1 N 20 28 11 15 1003.8 - 0.0
22/10:30am 27.1 26.2 14.8 47 7.4 NNE 13 20 7 11 1004.3 - 0.0
22/10:00am 23.4 22.8 15.7 62 4.7 NE 13 19 7 10 1004.7 - 0.0
22/09:30am 20.2 19.3 14.8 71 3.2 NNE 13 17 7 9 1005.3 - 0.0
22/09:00am 18.2 18.5 15.1 82 1.8 ENE 7 11 4 6 1006.0 - 0.2
22/08:30am 16.7 16.4 14.5 87 1.3 NNE 9 13 5 7 1006.2 - 0.2
22/08:00am 15.8 15.5 14.3 91 0.9 N 9 11 5 6 1006.5 - 0.2
22/07:30am 14.2 13.9 13.4 95 0.4 N 7 9 4 5 1006.6 - 0.2
22/07:00am 13.5 13.1 12.9 96 0.3 N 7 9 4 5 1006.7 - 0.2
22/06:30am 12.7 12.0 12.1 96 0.3 NE 7 11 4 6 1006.4 - 0.2
22/06:00am 12.9 12.3 12.3 96 0.3 N 7 11 4 6 1006.6 - 0.2
22/05:30am 13.0 12.5 12.1 94 0.5 NNW 6 7 3 4 1006.8 - 0.2
22/05:00am 13.4 12.9 12.5 94 0.5 NE 7 9 4 5 1006.5 - 0.2
22/04:30am 13.6 13.1 12.5 93 0.6 ENE 7 9 4 5 1006.5 - 0.2
22/04:00am 13.7 14.1 12.6 93 0.6 NE 2 6 1 3 1006.9 - 0.2
22/03:30am 13.9 14.7 12.5 91 0.8 CALM 0 0 0 0 1007.2 - 0.2
22/03:00am 14.3 13.8 12.7 90 0.9 NE 7 9 4 5 1007.4 - 0.2
22/02:30am 14.9 14.2 13.1 89 1.0 NE 9 13 5 7 1007.3 - 0.2
22/02:00am 15.0 13.6 13.4 90 0.9 NE 13 15 7 8 1007.4 - 0.2
22/01:30am 15.4 13.7 13.6 89 1.0 NE 15 19 8 10 1007.8 - 0.2
22/01:00am 15.2 13.8 13.4 89 1.0 ENE 13 15 7 8 1008.4 - 0.2
22/12:30am 15.1 14.1 13.3 89 1.0 ENE 11 13 6 7 1009.0 - 0.2
22/12:00am 15.1 14.0 13.0 87 1.2 ENE 11 13 6 7 1009.1 - 0.2
 
Date/Time
EDT
Temp
°C
App
Temp
°C
Dew
Point
°C
Rel
Hum
%
Delta-T
°C
Wind Press
QNH
hPa
Press
MSL
hPa
Rain since
9am
mm
Dir  Spd
km/h
Gust
km/h
Spd
kts
Gust
kts
21/11:30pm 15.3 13.8 13.0 86 1.3 ENE 13 15 7 8 1009.1 - 0.2
21/11:00pm 15.4 14.2 12.9 85 1.4 NE 11 13 6 7 1009.3 - 0.2
21/10:30pm 15.3 13.6 12.6 84 1.5 ENE 13 15 7 8 1009.4 - 0.2
21/10:00pm 16.0 14.1 12.9 82 1.7 E 15 19 8 10 1009.5 - 0.2
21/09:30pm 16.3 13.5 12.7 79 2.0 E 19 20 10 11 1009.3 - 0.2
21/09:00pm 16.8 14.5 12.9 78 2.2 E 17 24 9 13 1009.1 - 0.2
21/08:30pm 17.5 14.8 12.8 74 2.6 ESE 19 24 10 13 1008.6 - 0.2
21/08:18pm 17.8 15.2 13.1 74 2.6 E 19 22 10 12 1008.5 - 0.2
21/08:00pm 18.3 15.7 13.2 72 2.9 ESE 19 22 10 12 1008.2 - 0.2
21/07:30pm 19.2 16.5 13.4 69 3.3 ESE 20 24 11 13 1007.7 - 0.2
21/07:00pm 19.9 17.2 13.6 67 3.6 SE 20 26 11 14 1007.4 - 0.2
21/06:30pm 20.2 16.6 13.2 64 4.0 ESE 24 32 13 17 1007.1 - 0.2
21/06:00pm 20.9 18.0 14.1 65 4.0 ESE 22 28 12 15 1006.8 - 0.2
21/05:30pm 21.4 19.1 14.6 65 4.0 ESE 20 30 11 16 1006.7 - 0.2
21/05:00pm 21.5 19.4 14.6 65 4.1 SE 19 24 10 13 1006.9 - 0.2
21/04:30pm 21.6 19.8 14.5 64 4.2 E 17 32 9 17 1006.8 - 0.2
21/04:00pm 23.9 22.3 12.8 49 6.4 SW 13 24 7 13 1006.9 - 0.2
21/03:30pm 24.5 22.3 14.3 53 6.0 WSW 19 28 10 15 1007.0 - 0.2
21/03:00pm 23.9 21.6 14.6 56 5.5 W 20 30 11 16 1007.3 - 0.2
21/02:30pm 22.6 19.1 12.3 52 5.8 WSW 22 30 12 16 1007.4 - 0.2
21/02:00pm 22.0 17.7 12.0 53 5.6 WSW 26 41 14 22 1007.6 - 0.2
21/01:30pm 21.5 17.6 12.1 55 5.3 WSW 24 35 13 19 1007.6 - 0.2
21/01:00pm 22.0 17.5 12.5 54 5.4 WSW 28 41 15 22 1007.8 - 0.2
21/12:30pm 21.1 16.3 11.7 55 5.2 W 28 37 15 20 1008.0 - 0.2
21/12:00pm 20.4 15.7 12.1 59 4.6 WSW 28 41 15 22 1008.0 - 0.2
21/11:30am 19.9 15.8 12.7 63 4.1 W 26 39 14 21 1008.1 - 0.0
21/11:00am 18.8 13.0 11.6 63 4.0 W 33 48 18 26 1008.3 - 0.0
21/10:30am 18.4 12.3 11.9 66 3.6 W 35 48 19 26 1008.5 - 0.0
21/10:11am 18.0 12.3 11.1 64 3.7 W 32 50 17 27 1008.5 - 0.0
21/10:00am 17.7 12.0 11.9 69 3.2 W 33 46 18 25 1008.4 - 0.0
21/09:30am 16.9 11.5 12.2 74 2.6 W 32 50 17 27 1008.4 - 0.0
21/09:26am 17.0 12.3 12.1 73 2.7 W 28 48 15 26 1008.3 - 0.0
21/09:00am 17.4 12.5 12.7 74 2.6 W 30 43 16 23 1008.3 - 31.4
21/08:30am 16.5 13.1 12.5 77 2.2 W 22 35 12 19 1008.1 - 31.4
21/08:09am 15.9 11.7 12.5 80 1.9 W 26 35 14 19 1007.8 - 31.4
21/08:00am 15.9 12.7 13.0 83 1.6 W 22 33 12 18 1007.7 - 31.4
21/07:30am 15.2 12.2 12.5 84 1.5 W 20 28 11 15 1007.3 - 31.4
21/07:00am 15.2 12.2 12.7 85 1.4 W 20 30 11 16 1006.8 - 31.4
21/06:30am 15.3 12.5 13.2 87 1.2 W 20 28 11 15 1006.4 - 31.4
21/06:00am 15.4 12.5 12.9 85 1.4 W 20 28 11 15 1006.0 - 31.4
21/05:30am 15.5 12.0 13.3 87 1.2 W 24 35 13 19 1005.7 - 31.4
21/05:00am 15.5 12.7 14.2 92 0.7 W 22 30 12 16 1005.3 - 31.4
21/04:30am 15.7 12.7 14.7 94 0.6 W 24 33 13 18 1005.0 - 31.4
21/04:23am 15.8 12.9 15.0 95 0.5 W 24 32 13 17 1004.8 - 31.4
21/04:09am 15.7 12.8 15.1 96 0.3 W 24 37 13 20 1004.8 - 31.4
21/04:00am 15.8 12.9 15.2 96 0.3 W 24 33 13 18 1004.9 - 31.2
21/03:56am 15.8 13.3 15.2 96 0.3 W 22 33 12 18 1004.9 - 30.8
21/03:30am 16.1 14.7 15.5 96 0.3 W 17 24 9 13 1004.7 - 30.8
21/03:28am 16.1 15.1 15.5 96 0.3 W 15 22 8 12 1004.7 - 30.8
21/03:00am 16.0 15.7 15.4 96 0.3 W 11 15 6 8 1004.7 - 30.8
21/02:59am 16.1 15.8 15.5 96 0.3 W 11 15 6 8 1004.7 - 30.8
21/02:30am 16.1 15.8 15.5 96 0.3 W 11 15 6 8 1004.7 - 30.6
21/02:19am 16.3 16.1 15.7 96 0.4 W 11 15 6 8 1004.8 - 30.6
21/02:00am 16.5 15.9 15.7 95 0.5 WSW 13 17 7 9 1004.8 - 30.6
21/01:30am 16.6 16.1 15.8 95 0.5 WSW 13 17 7 9 1005.0 - 30.6
21/01:00am 16.4 15.4 15.6 95 0.5 WSW 15 19 8 10 1005.2 - 30.6
21/12:40am 16.3 14.9 15.5 95 0.5 SW 17 22 9 12 1005.1 - 30.6
21/12:30am 16.3 14.6 15.7 96 0.4 SW 19 26 10 14 1005.1 - 30.6
21/12:00am 16.3 15.8 15.8 97 0.3 WSW 13 19 7 10 1005.1 - 30.6
 
Date/Time
EDT
Temp
°C
App
Temp
°C
Dew
Point
°C
Rel
Hum
%
Delta-T
°C
Wind Press
QNH
hPa
Press
MSL
hPa
Rain since
9am
mm
Dir  Spd
km/h
Gust
km/h
Spd
kts
Gust
kts
20/11:59pm 16.4 16.3 16.1 98 0.2 WSW 11 15 6 8 1005.2 - 30.6
20/11:30pm 16.5 15.3 16.0 97 0.3 SSW 17 24 9 13 1004.9 - 30.6
20/11:18pm 16.5 15.3 16.2 98 0.2 SW 17 22 9 12 1004.9 - 30.6
20/11:00pm 16.5 15.7 16.2 98 0.2 SW 15 20 8 11 1004.7 - 30.6
20/10:30pm 16.6 15.5 16.3 98 0.2 SW 17 24 9 13 1004.6 - 30.4
20/10:00pm 16.5 15.3 16.2 98 0.2 SW 17 20 9 11 1004.5 - 30.4
20/09:30pm 16.7 15.2 16.2 97 0.3 SSW 19 26 10 14 1004.2 - 30.4
20/09:00pm 16.7 15.0 16.2 97 0.3 SSW 20 28 11 15 1003.7 - 30.2
20/08:43pm 16.8 15.1 16.3 97 0.3 SSW 20 26 11 14 1003.5 - 29.6
20/08:30pm 16.8 14.7 16.3 97 0.3 SSW 22 30 12 16 1003.3 - 29.6
20/08:11pm 16.8 14.0 16.3 97 0.3 SSW 26 33 14 18 1002.9 - 29.6
20/08:00pm 16.8 14.8 16.5 98 0.2 SSW 22 28 12 15 1002.8 - 29.6
20/07:30pm 17.1 15.8 16.8 98 0.2 SSW 19 24 10 13 1002.5 - 28.8
20/07:00pm 17.3 16.5 17.0 98 0.2 S 17 22 9 12 1002.2 - 28.2
20/06:30pm 17.3 16.1 17.0 98 0.2 S 19 22 10 12 1002.1 - 28.2
20/06:00pm 17.3 16.1 17.0 98 0.2 S 19 24 10 13 1002.1 - 27.8
20/05:30pm 17.3 15.8 16.8 97 0.3 S 20 26 11 14 1002.2 - 25.0
20/05:00pm 17.4 16.0 16.9 97 0.3 S 20 26 11 14 1002.3 - 20.8
20/04:30pm 17.9 16.2 17.1 95 0.5 S 22 32 12 17 1002.4 - 17.2
20/04:00pm 18.4 17.2 17.6 95 0.5 S 20 26 11 14 1002.2 - 17.2
20/03:30pm 18.0 17.4 17.5 97 0.3 S 17 22 9 12 1002.5 - 17.2
20/03:00pm 17.8 16.8 17.5 98 0.2 SSE 19 24 10 13 1002.8 - 16.8
20/02:30pm 17.7 17.0 17.4 98 0.2 S 17 22 9 12 1003.0 - 16.6
20/02:00pm 17.8 17.2 17.5 98 0.2 S 17 22 9 12 1003.2 - 16.6
20/01:30pm 17.8 17.9 17.5 98 0.2 S 13 20 7 11 1003.5 - 16.4
20/01:00pm 17.8 17.2 17.5 98 0.2 S 17 26 9 14 1003.1 - 16.4
20/12:30pm 17.9 16.7 17.6 98 0.2 SSE 20 28 11 15 1003.5 - 15.8
20/12:00pm 18.0 16.9 17.7 98 0.2 SSE 20 30 11 16 1004.0 - 13.4
20/11:49am 17.9 16.7 17.6 98 0.2 SSE 20 26 11 14 1004.0 - 11.4
20/11:30am 18.0 16.1 17.7 98 0.2 SE 24 32 13 17 1004.1 - 8.6
20/11:11am 18.1 17.5 17.6 97 0.3 SSE 17 22 9 12 1004.4 - 4.4
20/11:00am 18.2 17.3 17.7 97 0.3 SSE 19 24 10 13 1004.4 - 3.6

Other formats

Comma delimited format used in spreadsheet applications
http://www.bom.gov.au/fwo/IDV60801/IDV60801.95907.axf

JavaScript Object Notation format (JSON) in row-major order
http://www.bom.gov.au/fwo/IDV60801/IDV60801.95907.json

Data quality

Most of these data are generated automatically and are frequently updated. Quality checks on data are not normally performed. It is possible for incorrect values to appear. Refer to information at About Latest Weather Observations and please check the disclaimer before using these data.